createdAt,value
2018-06-15T00:00:10.773Z,12.50
2018-06-15T00:02:38.979Z,10.33
2018-06-15T00:05:07.572Z,11.60
2018-06-15T00:07:36.336Z,10.23
2018-06-15T00:10:05.240Z,11.37
2018-06-15T00:12:33.974Z,14.43
2018-06-15T00:15:02.496Z,12.37
2018-06-15T00:17:31.269Z,13.00
2018-06-15T00:20:00.081Z,12.27
2018-06-15T00:22:28.740Z,13.23
2018-06-15T00:24:57.243Z,11.70
2018-06-15T00:27:25.752Z,14.10
2018-06-15T00:29:54.550Z,11.13
2018-06-15T00:32:23.387Z,12.80
2018-06-15T00:34:52.142Z,12.90
2018-06-15T00:37:20.536Z,12.80
2018-06-15T00:39:49.147Z,13.60
2018-06-15T00:42:17.712Z,14.23
2018-06-15T00:44:46.311Z,15.73
2018-06-15T00:47:14.867Z,15.83
2018-06-15T00:49:47.078Z,16.57
2018-06-15T00:52:15.604Z,15.03
2018-06-15T00:54:44.300Z,18.57
2018-06-15T00:57:24.048Z,16.80
2018-06-15T00:59:52.667Z,16.47
2018-06-15T01:02:21.195Z,16.67
2018-06-15T01:04:49.820Z,17.17
2018-06-15T01:07:18.475Z,18.87
2018-06-15T01:09:46.985Z,17.47
2018-06-15T01:12:15.539Z,17.53
2018-06-15T01:14:44.383Z,17.33
2018-06-15T01:17:13.111Z,19.17
2018-06-15T01:19:41.628Z,17.30
2018-06-15T01:22:10.235Z,19.73
2018-06-15T01:24:38.747Z,20.57
2018-06-15T01:27:07.436Z,17.50
2018-06-15T01:29:36.142Z,18.63
2018-06-15T01:32:04.818Z,18.50
2018-06-15T01:34:33.315Z,16.93
2018-06-15T01:37:01.839Z,20.93
2018-06-15T01:39:30.583Z,18.47
2018-06-15T01:41:59.091Z,19.47
2018-06-15T01:44:27.647Z,15.57
2018-06-15T01:46:56.431Z,14.73
2018-06-15T01:49:25.134Z,21.00
2018-06-15T01:51:53.599Z,17.73
2018-06-15T01:54:22.087Z,19.40
2018-06-15T01:56:50.739Z,19.67
2018-06-15T01:59:19.422Z,20.83
2018-06-15T02:01:48.155Z,21.67
2018-06-15T02:04:16.624Z,21.13
2018-06-15T02:06:45.162Z,20.70
2018-06-15T02:09:13.917Z,22.07
2018-06-15T02:11:42.566Z,22.70
2018-06-15T02:14:10.749Z,20.27
2018-06-15T02:16:39.315Z,21.00
2018-06-15T02:19:07.481Z,24.10
2018-06-15T02:21:36.034Z,18.43
2018-06-15T02:24:05.028Z,19.53
2018-06-15T02:26:33.643Z,21.10
2018-06-15T02:29:02.132Z,19.07
2018-06-15T02:31:30.280Z,20.97
2018-06-15T02:33:59.068Z,18.17
2018-06-15T02:36:27.583Z,18.67
2018-06-15T02:38:56.100Z,16.10
2018-06-15T02:41:24.720Z,18.00
2018-06-15T02:43:53.220Z,19.97
2018-06-15T02:46:21.847Z,23.33
2018-06-15T02:48:50.381Z,24.03
2018-06-15T02:51:19.129Z,20.83
2018-06-15T02:53:47.948Z,18.87
2018-06-15T02:56:16.473Z,20.47
2018-06-15T02:58:44.967Z,21.30
2018-06-15T03:01:13.455Z,21.40
2018-06-15T03:03:42.067Z,19.10
2018-06-15T03:06:10.781Z,19.07
2018-06-15T03:08:39.271Z,18.37
2018-06-15T03:11:07.793Z,18.97
2018-06-15T03:13:36.322Z,18.87
2018-06-15T03:16:04.993Z,18.47
2018-06-15T03:18:33.536Z,21.43
2018-06-15T03:21:02.272Z,17.23
2018-06-15T03:23:31.025Z,19.50
2018-06-15T03:26:00.068Z,20.93
2018-06-15T03:28:28.571Z,21.53
2018-06-15T03:30:57.132Z,21.73
2018-06-15T03:33:25.636Z,19.07
2018-06-15T03:35:54.123Z,17.10
2018-06-15T03:38:22.793Z,17.47
2018-06-15T03:40:51.300Z,18.63
2018-06-15T03:43:19.985Z,19.83
2018-06-15T03:45:48.887Z,18.13
2018-06-15T03:48:17.392Z,16.83
2018-06-15T03:50:46.005Z,15.30
2018-06-15T03:53:14.481Z,17.40
2018-06-15T03:55:42.997Z,19.60
2018-06-15T03:58:11.496Z,16.13
2018-06-15T04:00:40.051Z,20.73
2018-06-15T04:03:08.831Z,16.53
2018-06-15T04:05:37.359Z,18.43
2018-06-15T04:08:06.234Z,21.30
2018-06-15T04:10:34.751Z,20.03
2018-06-15T04:13:02.999Z,18.33
2018-06-15T04:15:31.579Z,15.87
2018-06-15T04:18:07.424Z,17.33
2018-06-15T04:20:37.489Z,17.87
2018-06-15T04:23:06.177Z,20.00
2018-06-15T04:25:34.680Z,20.00
2018-06-15T04:28:03.444Z,16.03
2018-06-15T04:30:32.417Z,19.57
2018-06-15T04:33:01.163Z,18.50
2018-06-15T04:35:29.667Z,18.53
2018-06-15T04:37:58.153Z,17.27
2018-06-15T04:40:26.686Z,16.13
2018-06-15T04:42:55.333Z,15.17
2018-06-15T04:45:23.879Z,17.67
2018-06-15T04:47:52.595Z,19.90
2018-06-15T04:50:21.110Z,17.53
2018-06-15T04:52:49.849Z,15.60
2018-06-15T04:55:18.431Z,17.43
2018-06-15T04:57:47.088Z,15.77
2018-06-15T05:00:15.653Z,18.50
2018-06-15T05:02:44.145Z,16.17
2018-06-15T05:05:12.700Z,18.70
2018-06-15T05:07:41.291Z,15.80
2018-06-15T05:10:09.874Z,18.73
2018-06-15T05:12:38.399Z,13.80
2018-06-15T05:15:07.475Z,17.00
2018-06-15T05:17:35.981Z,14.97
2018-06-15T05:20:05.253Z,17.27
2018-06-15T05:22:33.748Z,16.60
2018-06-15T05:25:02.502Z,17.63
2018-06-15T05:27:31.228Z,17.13
2018-06-15T05:29:59.744Z,18.73
2018-06-15T05:32:28.835Z,22.43
2018-06-15T05:34:57.403Z,22.17
2018-06-15T05:37:25.907Z,21.30
2018-06-15T05:39:54.434Z,18.57
2018-06-15T05:42:23.456Z,20.83
2018-06-15T05:44:52.362Z,23.17
2018-06-15T05:47:21.089Z,19.10
2018-06-15T05:49:49.741Z,20.83
2018-06-15T05:52:18.186Z,24.87
2018-06-15T05:54:46.896Z,23.77
2018-06-15T05:57:15.414Z,20.67
2018-06-15T05:59:43.974Z,23.73
2018-06-15T06:02:12.813Z,24.47
2018-06-15T06:04:41.331Z,21.67
2018-06-15T06:07:09.854Z,23.10
2018-06-15T06:09:38.471Z,23.30
2018-06-15T06:12:07.251Z,25.27
2018-06-15T06:14:36.021Z,25.03
2018-06-15T06:17:04.854Z,22.30
2018-06-15T06:19:33.485Z,24.80
2018-06-15T06:22:01.995Z,24.50
2018-06-15T06:24:30.702Z,27.40
2018-06-15T06:26:59.203Z,20.60
2018-06-15T06:29:27.884Z,20.23
2018-06-15T06:31:56.556Z,22.60
2018-06-15T06:34:25.656Z,24.07
2018-06-15T06:36:54.251Z,23.80
2018-06-15T06:39:22.815Z,20.37
2018-06-15T06:41:51.343Z,22.90
2018-06-15T06:44:19.841Z,23.60
2018-06-15T06:46:48.353Z,22.97
2018-06-15T06:49:16.935Z,22.83
2018-06-15T06:51:45.641Z,23.63
2018-06-15T06:54:14.518Z,21.23
2018-06-15T06:56:43.087Z,23.10
2018-06-15T06:59:11.899Z,21.20
2018-06-15T07:01:40.544Z,17.47
2018-06-15T07:04:09.360Z,18.17
2018-06-15T07:06:37.964Z,18.83
2018-06-15T07:09:07.561Z,21.60
2018-06-15T07:11:36.804Z,18.67
2018-06-15T07:14:05.564Z,18.07
2018-06-15T07:16:34.129Z,18.00
2018-06-15T07:19:02.641Z,20.83
2018-06-15T07:21:31.228Z,18.77
2018-06-15T07:24:00.615Z,18.27
2018-06-15T07:26:29.211Z,17.50
2018-06-15T07:28:57.744Z,16.33
2018-06-15T07:31:26.763Z,17.33
2018-06-15T07:33:55.391Z,19.93
2018-06-15T07:36:24.012Z,17.07
2018-06-15T07:38:52.916Z,15.03
2018-06-15T07:41:21.523Z,16.27
2018-06-15T07:43:50.108Z,16.43
2018-06-15T07:46:18.471Z,15.37
2018-06-15T07:48:48.232Z,16.73
2018-06-15T07:51:16.747Z,14.90
2018-06-15T07:53:45.293Z,16.10
2018-06-15T07:56:14.131Z,18.37
2018-06-15T07:58:42.874Z,14.43
2018-06-15T08:01:11.619Z,15.57
2018-06-15T08:03:40.260Z,15.57
2018-06-15T08:06:08.980Z,14.80
2018-06-15T08:08:37.814Z,17.73
2018-06-15T08:11:06.503Z,15.63
2018-06-15T08:13:35.120Z,17.50
2018-06-15T08:16:03.914Z,15.13
2018-06-15T08:18:32.491Z,15.90
2018-06-15T08:21:01.122Z,13.60
2018-06-15T08:23:30.320Z,15.87
2018-06-15T08:25:58.880Z,12.53
2018-06-15T08:28:27.791Z,12.80
2018-06-15T08:30:56.467Z,12.23
2018-06-15T08:33:25.059Z,12.47
2018-06-15T08:35:53.627Z,11.07
2018-06-15T08:38:22.378Z,10.80
2018-06-15T08:40:51.055Z,10.87
2018-06-15T08:43:19.560Z,11.23
2018-06-15T08:48:21.897Z,12.77
2018-06-15T08:50:50.570Z,11.23
2018-06-15T08:53:19.099Z,11.27
2018-06-15T08:55:47.564Z,10.80
2018-06-15T08:58:16.333Z,9.40
2018-06-15T09:00:51.577Z,10.87
2018-06-15T09:03:20.155Z,9.10
2018-06-15T09:05:48.701Z,11.63
2018-06-15T09:08:17.491Z,9.60
2018-06-15T09:10:46.366Z,12.73
2018-06-15T09:13:14.894Z,9.17
2018-06-15T09:15:43.771Z,9.50
2018-06-15T09:18:12.187Z,9.30
2018-06-15T09:20:40.647Z,9.97
2018-06-15T09:23:09.287Z,10.23
2018-06-15T09:25:37.850Z,12.23
2018-06-15T09:28:06.562Z,9.70
2018-06-15T09:30:35.236Z,9.47
2018-06-15T09:33:03.772Z,9.87
2018-06-15T09:35:33.042Z,10.37
2018-06-15T09:38:01.603Z,14.40
2018-06-15T09:40:30.112Z,10.03
2018-06-15T09:42:58.683Z,11.57
2018-06-15T09:45:27.503Z,10.37
2018-06-15T09:47:56.031Z,9.23
2018-06-15T09:50:24.723Z,12.13
2018-06-15T09:52:53.576Z,9.27
2018-06-15T09:55:22.077Z,9.77
2018-06-15T09:57:51.042Z,8.90
2018-06-15T10:00:25.292Z,7.83
2018-06-15T10:02:53.943Z,7.60
2018-06-15T10:05:22.575Z,9.23
2018-06-15T10:07:51.487Z,7.83
2018-06-15T10:10:20.005Z,7.30
2018-06-15T10:12:48.749Z,7.30
2018-06-15T10:15:17.542Z,7.10
2018-06-15T10:17:46.072Z,6.67
2018-06-15T10:20:15.067Z,7.10
2018-06-15T10:22:43.916Z,7.92
2018-06-15T10:25:12.683Z,4.87
2018-06-15T10:27:41.604Z,4.47
2018-06-15T10:30:10.157Z,5.72
2018-06-15T10:32:38.812Z,4.60
2018-06-15T10:35:07.501Z,5.08
2018-06-15T10:37:36.147Z,5.65
2018-06-15T10:40:05.090Z,5.62
2018-06-15T10:42:33.274Z,4.97
2018-06-15T10:45:02.039Z,5.78
2018-06-15T10:47:30.845Z,5.42
2018-06-15T10:49:59.843Z,5.22
2018-06-15T10:52:28.938Z,4.90
2018-06-15T10:54:57.338Z,4.62
2018-06-15T10:57:26.112Z,6.05
2018-06-15T10:59:55.006Z,4.75
2018-06-15T11:02:23.550Z,5.45
2018-06-15T11:04:52.180Z,5.87
2018-06-15T11:07:20.748Z,5.75
2018-06-15T11:09:49.294Z,5.55
2018-06-15T11:12:17.988Z,5.17
2018-06-15T11:14:46.661Z,5.75
2018-06-15T11:17:15.175Z,5.45
2018-06-15T11:19:43.971Z,5.67
2018-06-15T11:22:12.527Z,7.67
2018-06-15T11:24:41.322Z,5.80
2018-06-15T11:27:10.008Z,5.72
2018-06-15T11:29:38.532Z,5.05
2018-06-15T11:32:07.108Z,4.47
2018-06-15T11:34:35.676Z,4.47
2018-06-15T11:37:04.211Z,4.97
2018-06-15T11:39:32.943Z,4.80
2018-06-15T11:42:01.503Z,5.55
2018-06-15T11:44:30.010Z,4.95
2018-06-15T11:46:58.788Z,6.78
2018-06-15T11:49:27.172Z,5.58
2018-06-15T11:51:56.173Z,4.97
2018-06-15T11:54:24.743Z,5.22
2018-06-15T11:56:53.517Z,6.60
2018-06-15T11:59:22.152Z,10.13
2018-06-15T12:01:50.877Z,10.18
2018-06-15T12:04:19.783Z,9.70
2018-06-15T12:06:48.425Z,12.37
2018-06-15T12:09:17.292Z,12.30
2018-06-15T12:11:46.121Z,11.68
2018-06-15T12:14:14.765Z,13.35
2018-06-15T12:16:43.375Z,12.75
2018-06-15T12:19:12.185Z,11.18
2018-06-15T12:21:40.856Z,11.00
2018-06-15T12:24:09.369Z,11.55
2018-06-15T12:26:38.053Z,10.98
2018-06-15T12:29:06.485Z,11.33
2018-06-15T12:31:35.036Z,10.95
2018-06-15T12:34:03.725Z,10.08
2018-06-15T12:36:32.485Z,10.15
2018-06-15T12:39:01.627Z,12.80
2018-06-15T12:41:30.168Z,8.65
2018-06-15T12:43:59.209Z,8.68
2018-06-15T12:46:28.024Z,8.08
2018-06-15T12:48:56.964Z,6.45
2018-06-15T12:51:25.542Z,7.62
2018-06-15T12:53:54.225Z,8.43
2018-06-15T12:56:22.937Z,7.58
2018-06-15T12:58:51.612Z,7.00
2018-06-15T13:01:20.196Z,6.03
2018-06-15T13:03:48.768Z,5.30
2018-06-15T13:06:17.621Z,5.58
2018-06-15T13:08:46.253Z,7.00
2018-06-15T13:11:14.804Z,5.97
2018-06-15T13:13:43.482Z,6.15
2018-06-15T13:16:12.275Z,7.00
2018-06-15T13:18:40.735Z,6.35
2018-06-15T13:21:09.513Z,6.35
2018-06-15T13:23:38.337Z,5.15
2018-06-15T13:26:07.233Z,6.50
2018-06-15T13:28:36.052Z,6.53
2018-06-15T13:31:04.771Z,5.53
2018-06-15T13:33:33.294Z,5.80
2018-06-15T13:36:02.035Z,5.60
2018-06-15T13:38:30.591Z,5.42
2018-06-15T13:40:59.289Z,5.40
2018-06-15T13:43:27.894Z,5.30
2018-06-15T13:45:56.472Z,5.03
2018-06-15T13:48:24.992Z,6.20
2018-06-15T13:50:53.704Z,5.40
2018-06-15T13:53:22.244Z,5.67
2018-06-15T13:55:51.052Z,5.17
2018-06-15T13:58:19.781Z,5.10
2018-06-15T14:00:48.529Z,5.20
2018-06-15T14:03:17.075Z,4.17
2018-06-15T14:05:45.645Z,4.65
2018-06-15T14:08:14.255Z,4.17
2018-06-15T14:10:43.143Z,4.00
2018-06-15T14:13:11.727Z,4.30
2018-06-15T14:15:40.273Z,3.80
2018-06-15T14:18:09.242Z,6.28
2018-06-15T14:20:37.822Z,4.05
2018-06-15T14:23:06.372Z,3.65
2018-06-15T14:25:35.003Z,3.55
2018-06-15T14:28:03.686Z,4.17
2018-06-15T14:30:32.226Z,4.80
2018-06-15T14:33:00.885Z,5.05
2018-06-15T14:35:29.411Z,4.47
2018-06-15T14:37:58.207Z,4.30
2018-06-15T14:40:27.292Z,4.33
2018-06-15T14:42:55.968Z,4.72
2018-06-15T14:45:24.167Z,4.78
2018-06-15T14:47:52.938Z,4.30
2018-06-15T14:50:21.693Z,4.72
2018-06-15T14:52:50.462Z,4.30
2018-06-15T14:55:19.113Z,4.35
2018-06-15T14:57:48.057Z,5.35
2018-06-15T15:00:16.696Z,6.62
2018-06-15T15:02:45.483Z,4.95
2018-06-15T15:05:14.036Z,5.20
2018-06-15T15:07:42.759Z,4.28
2018-06-15T15:10:11.643Z,5.80
2018-06-15T15:12:40.164Z,6.95
2018-06-15T15:15:08.723Z,6.95
2018-06-15T15:17:37.316Z,6.03
2018-06-15T15:20:06.178Z,6.05
2018-06-15T15:22:35.140Z,5.85
2018-06-15T15:25:03.903Z,6.37
2018-06-15T15:27:32.579Z,5.70
2018-06-15T15:30:01.115Z,5.12
2018-06-15T15:32:29.877Z,6.00
2018-06-15T15:34:58.541Z,3.52
2018-06-15T15:37:27.393Z,4.67
2018-06-15T15:39:56.466Z,4.10
2018-06-15T15:42:25.180Z,4.85
2018-06-15T15:44:53.819Z,8.75
2018-06-15T15:47:23.161Z,5.55
2018-06-15T15:49:52.206Z,5.22
2018-06-15T15:52:21.238Z,4.30
2018-06-15T15:54:50.015Z,5.45
2018-06-15T15:57:18.752Z,6.45
2018-06-15T15:59:47.589Z,5.05
2018-06-15T16:02:16.659Z,4.35
2018-06-15T16:04:45.254Z,4.80
2018-06-15T16:07:14.397Z,4.40
2018-06-15T16:09:42.980Z,4.55
2018-06-15T16:12:11.512Z,4.35
2018-06-15T16:14:40.621Z,5.03
2018-06-15T16:17:09.342Z,4.95
2018-06-15T16:19:38.082Z,5.00
2018-06-15T16:22:06.950Z,4.97
2018-06-15T16:24:35.523Z,6.87
2018-06-15T16:27:04.348Z,5.42
2018-06-15T16:29:32.574Z,5.00
2018-06-15T16:32:01.663Z,5.30
2018-06-15T16:34:30.434Z,6.10
2018-06-15T16:36:59.119Z,6.05
2018-06-15T16:39:27.836Z,7.30
2018-06-15T16:41:56.504Z,6.42
2018-06-15T16:44:25.206Z,6.47
2018-06-15T16:46:53.892Z,6.17
2018-06-15T16:49:22.574Z,6.65
2018-06-15T16:51:51.487Z,6.53
2018-06-15T16:54:20.135Z,5.45
2018-06-15T16:56:48.659Z,4.40
2018-06-15T16:59:17.176Z,5.22
2018-06-15T17:01:45.975Z,4.60
2018-06-15T17:04:14.652Z,4.67
2018-06-15T17:06:43.160Z,4.67
2018-06-15T17:09:12.184Z,5.28
2018-06-15T17:11:40.783Z,4.78
2018-06-15T17:14:09.594Z,4.62
2018-06-15T17:16:38.259Z,5.25
2018-06-15T17:19:06.828Z,5.62
2018-06-15T17:21:35.630Z,5.37
2018-06-15T17:24:04.402Z,4.92
2018-06-15T17:26:33.499Z,6.35
2018-06-15T17:29:02.407Z,5.35
2018-06-15T17:31:31.293Z,6.30
2018-06-15T17:34:00.017Z,5.85
2018-06-15T17:36:28.907Z,5.72
2018-06-15T17:38:57.989Z,6.80
2018-06-15T17:41:26.813Z,5.22
2018-06-15T17:43:55.377Z,5.90
2018-06-15T17:46:24.204Z,5.40
2018-06-15T17:48:53.007Z,5.93
2018-06-15T17:51:21.580Z,5.80
2018-06-15T17:53:50.224Z,6.20
2018-06-15T17:56:18.733Z,7.10
2018-06-15T17:58:47.767Z,4.20
2018-06-15T18:01:16.519Z,3.60
2018-06-15T18:03:45.243Z,3.27
2018-06-15T18:06:13.869Z,3.70
2018-06-15T18:08:42.483Z,5.00
2018-06-15T18:11:11.163Z,3.50
2018-06-15T18:13:39.818Z,3.10
2018-06-15T18:16:08.560Z,4.67
2018-06-15T18:18:37.152Z,3.70
2018-06-15T18:21:06.028Z,3.80
2018-06-15T18:23:34.762Z,3.53
2018-06-15T18:26:03.415Z,4.80
2018-06-15T18:28:32.202Z,3.60
2018-06-15T18:31:00.890Z,3.50
2018-06-15T18:33:29.788Z,3.77
2018-06-15T18:35:58.508Z,3.70
2018-06-15T18:38:27.571Z,6.10
2018-06-15T18:40:56.268Z,4.90
2018-06-15T18:43:24.783Z,4.87
2018-06-15T18:45:53.825Z,5.27
2018-06-15T18:48:22.660Z,3.40
2018-06-15T18:50:51.556Z,3.77
2018-06-15T18:53:20.263Z,4.23
2018-06-15T18:55:49.241Z,3.60
2018-06-15T18:58:17.995Z,4.00
2018-06-15T19:00:46.676Z,4.20
2018-06-15T19:03:15.602Z,4.23
2018-06-15T19:05:44.647Z,5.43
2018-06-15T19:08:13.398Z,3.90
2018-06-15T19:10:42.172Z,4.10
2018-06-15T19:13:10.813Z,4.73
2018-06-15T19:15:39.571Z,5.27
2018-06-15T19:18:07.879Z,5.00
2018-06-15T19:20:36.661Z,6.20
2018-06-15T19:23:05.351Z,4.30
2018-06-15T19:25:34.433Z,6.80
2018-06-15T19:28:03.060Z,4.40
2018-06-15T19:30:31.613Z,4.47
2018-06-15T19:33:00.143Z,5.53
2018-06-15T19:35:28.900Z,4.27
2018-06-15T19:37:57.455Z,4.63
2018-06-15T19:40:26.015Z,4.57
2018-06-15T19:42:54.716Z,8.60
2018-06-15T19:45:23.689Z,6.57
2018-06-15T19:47:52.313Z,5.27
2018-06-15T19:50:21.283Z,5.37
2018-06-15T19:52:49.875Z,4.70
2018-06-15T19:55:18.809Z,4.43
2018-06-15T19:57:47.496Z,4.93
2018-06-15T20:00:16.158Z,5.10
2018-06-15T20:02:44.928Z,7.67
2018-06-15T20:05:14.020Z,5.90
2018-06-15T20:07:42.703Z,5.07
2018-06-15T20:10:11.601Z,5.90
2018-06-15T20:12:40.205Z,4.30
2018-06-15T20:15:08.937Z,5.63
2018-06-15T20:17:37.888Z,4.47
2018-06-15T20:20:07.669Z,4.13
2018-06-15T20:22:36.472Z,8.27
2018-06-15T20:25:05.403Z,4.70
2018-06-15T20:27:34.520Z,6.87
2018-06-15T20:30:03.168Z,5.10
2018-06-15T20:32:33.003Z,5.60
2018-06-15T20:35:01.966Z,6.47
2018-06-15T20:37:30.578Z,7.50
2018-06-15T20:39:59.122Z,6.50
2018-06-15T20:42:28.075Z,6.53
2018-06-15T20:44:56.791Z,8.23
2018-06-15T20:47:25.811Z,6.27
2018-06-15T20:49:54.736Z,5.70
2018-06-15T20:52:23.470Z,5.10
2018-06-15T20:54:52.520Z,6.37
2018-06-15T20:57:21.149Z,5.60
2018-06-15T20:59:50.026Z,4.63
2018-06-15T21:02:19.223Z,5.90
2018-06-15T21:04:48.052Z,7.17
2018-06-15T21:07:16.671Z,4.80
2018-06-15T21:09:45.569Z,5.60
2018-06-15T21:12:14.171Z,5.70
2018-06-15T21:14:42.813Z,6.27
2018-06-15T21:17:11.482Z,5.37
2018-06-15T21:19:40.613Z,5.57
2018-06-15T21:22:09.309Z,5.07
2018-06-15T21:24:38.103Z,5.83
2018-06-15T21:27:06.793Z,6.10
2018-06-15T21:29:35.626Z,5.20
2018-06-15T21:32:04.373Z,5.40
2018-06-15T21:34:32.857Z,6.47
2018-06-15T21:37:01.604Z,5.67
2018-06-15T21:39:30.236Z,5.93
2018-06-15T21:41:59.152Z,6.47
2018-06-15T21:44:28.496Z,5.60
2018-06-15T21:46:57.108Z,5.63
2018-06-15T21:49:26.205Z,5.97
2018-06-15T21:51:55.080Z,5.27
2018-06-15T21:54:23.857Z,8.10
2018-06-15T21:56:52.622Z,5.80
2018-06-15T21:59:21.826Z,5.93
2018-06-15T22:01:50.372Z,6.90
2018-06-15T22:04:19.800Z,5.93
2018-06-15T22:06:48.321Z,5.50
2018-06-15T22:09:17.107Z,5.77
2018-06-15T22:11:45.659Z,5.67
2018-06-15T22:14:16.379Z,5.33
2018-06-15T22:16:50.338Z,6.07
2018-06-15T22:19:21.649Z,9.50
2018-06-15T22:21:51.267Z,6.77
2018-06-15T22:24:20.247Z,6.73
2018-06-15T22:26:49.043Z,5.00
2018-06-15T22:29:18.124Z,4.40
2018-06-15T22:31:47.040Z,5.67
2018-06-15T22:34:16.052Z,5.43
2018-06-15T22:36:44.644Z,4.87
2018-06-15T22:39:14.883Z,5.27
2018-06-15T22:41:43.819Z,6.10
2018-06-15T22:44:13.249Z,5.80
2018-06-15T22:46:42.948Z,6.90
2018-06-15T22:49:12.311Z,5.17
2018-06-15T22:51:42.055Z,4.43
2018-06-15T22:54:10.932Z,4.30
2018-06-15T22:56:39.667Z,4.73
2018-06-15T22:59:08.307Z,4.57
2018-06-15T23:01:36.902Z,4.43
2018-06-15T23:04:05.804Z,4.80
2018-06-15T23:06:34.465Z,4.70
2018-06-15T23:09:03.149Z,4.97
2018-06-15T23:11:31.643Z,4.40
2018-06-15T23:14:00.406Z,4.67
2018-06-15T23:16:29.066Z,10.03
2018-06-15T23:18:57.790Z,4.77
2018-06-15T23:21:26.316Z,8.23
2018-06-15T23:23:54.872Z,5.23
2018-06-15T23:26:23.515Z,6.53
2018-06-15T23:28:52.183Z,5.63
2018-06-15T23:31:20.980Z,7.13
2018-06-15T23:33:49.521Z,4.27
2018-06-15T23:36:18.177Z,4.13
2018-06-15T23:38:46.796Z,4.23
2018-06-15T23:41:15.349Z,4.80
2018-06-15T23:43:44.200Z,4.07
2018-06-15T23:46:13.111Z,3.70
2018-06-15T23:48:41.829Z,3.93
2018-06-15T23:51:10.536Z,4.50
2018-06-15T23:53:39.134Z,5.07
2018-06-15T23:56:07.883Z,5.23
2018-06-15T23:58:36.581Z,5.80
